Time;durP1;ratioP1;P1;durP2;ratioP2;P2;SDS_P1;SDS_P2;PMS_P1;PMS_P2;Temp;Humidity;BMP_temperature;BMP_pressure;BME280_temperature;BME280_humidity;BME280_pressure;Samples;Min_cycle;Max_cycle;Signal;HPM_P1;HPM_P2
2022/12/10 00:01:20;;;;;;;145.67;50.70;;;0.20;99.90;;;;;;4987254;28;37724;-75
2022/12/10 00:03:46;;;;;;;154.73;51.23;;;0.20;99.90;;;;;;5001096;28;37135;-75
2022/12/10 00:06:17;;;;;;;147.43;51.37;;;0.20;99.90;;;;;;4985828;28;38050;-76
2022/12/10 00:08:44;;;;;;;152.47;52.63;;;0.30;99.90;;;;;;4988043;28;39024;-75
2022/12/10 00:11:13;;;;;;;159.60;52.40;;;0.20;99.90;;;;;;4989164;28;38504;-75
2022/12/10 00:13:40;;;;;;;149.67;52.77;;;0.30;99.90;;;;;;5004569;28;37082;-75
2022/12/10 00:16:08;;;;;;;136.07;53.17;;;0.30;99.90;;;;;;4987118;28;37717;-75
2022/12/10 00:18:35;;;;;;;160.17;53.53;;;0.20;99.90;;;;;;5003664;28;39353;-76
2022/12/10 00:21:06;;;;;;;140.93;51.53;;;0.20;99.90;;;;;;4995533;28;38471;-75
2022/12/10 00:23:33;;;;;;;144.73;50.87;;;0.20;99.90;;;;;;4991892;28;46868;-75
2022/12/10 00:26:08;;;;;;;148.27;51.17;;;0.10;99.90;;;;;;4982557;28;36401;-75
2022/12/10 00:28:34;;;;;;;142.77;52.97;;;0.10;99.90;;;;;;4981370;28;48620;-76
2022/12/10 00:31:09;;;;;;;135.87;51.57;;;0.10;99.90;;;;;;4983154;28;39023;-75
2022/12/10 00:33:36;;;;;;;148.17;52.07;;;0.00;99.90;;;;;;4977648;28;47203;-75
2022/12/10 00:36:26;;;;;;;144.83;53.37;;;0.00;99.90;;;;;;4983152;28;37543;-76
2022/12/10 00:38:53;;;;;;;168.43;54.93;;;0.00;99.90;;;;;;4983989;28;48916;-76
2022/12/10 00:41:19;;;;;;;149.70;52.27;;;0.10;99.90;;;;;;4979402;28;35974;-76
2022/12/10 00:43:45;;;;;;;131.63;49.20;;;0.00;99.90;;;;;;4979060;28;36790;-75
2022/12/10 00:46:13;;;;;;;125.50;51.80;;;0.00;99.90;;;;;;4977356;28;37975;-76
2022/12/10 00:48:39;;;;;;;143.93;51.63;;;0.00;99.90;;;;;;4995477;28;38148;-76
2022/12/10 00:51:09;;;;;;;154.83;54.97;;;0.00;99.90;;;;;;4976655;28;38082;-75
2022/12/10 00:53:37;;;;;;;163.00;53.77;;;0.00;99.90;;;;;;4975453;28;37364;-76
2022/12/10 00:56:04;;;;;;;130.03;49.17;;;0.00;99.90;;;;;;4978684;28;37483;-75
2022/12/10 00:58:33;;;;;;;150.40;53.40;;;0.10;99.90;;;;;;4982331;28;37602;-76
2022/12/10 01:01:11;;;;;;;138.90;50.30;;;0.20;99.90;;;;;;4985047;28;38556;-75
2022/12/10 01:03:39;;;;;;;180.83;54.00;;;0.10;99.90;;;;;;4989427;28;47215;-76
2022/12/10 01:06:14;;;;;;;128.33;47.43;;;0.10;99.90;;;;;;4981031;28;36560;-76
2022/12/10 01:08:41;;;;;;;146.37;51.17;;;0.10;99.90;;;;;;4981733;28;46518;-76
2022/12/10 01:11:07;;;;;;;155.23;51.23;;;0.10;99.90;;;;;;4995157;28;38348;-76
2022/12/10 01:13:34;;;;;;;132.07;47.07;;;0.00;99.90;;;;;;4984790;28;36830;-76
2022/12/10 01:16:02;;;;;;;175.37;53.43;;;0.00;99.90;;;;;;4986043;28;38380;-76
2022/12/10 01:18:28;;;;;;;161.27;52.07;;;0.00;99.90;;;;;;4980349;28;37676;-76
2022/12/10 01:20:54;;;;;;;182.93;53.07;;;0.00;99.90;;;;;;4984364;28;37446;-75
2022/12/10 01:23:21;;;;;;;158.67;51.57;;;0.00;99.90;;;;;;4981234;28;37971;-76
2022/12/10 01:25:47;;;;;;;144.57;50.67;;;0.00;99.90;;;;;;4982689;28;37302;-76
2022/12/10 01:28:13;;;;;;;192.57;56.10;;;0.00;99.90;;;;;;4978975;28;38022;-76
2022/12/10 01:30:39;;;;;;;163.50;52.80;;;0.10;99.90;;;;;;4984946;28;38771;-76
2022/12/10 01:33:05;;;;;;;134.23;48.17;;;0.20;99.90;;;;;;4988629;28;39161;-76
2022/12/10 01:35:31;;;;;;;170.87;52.47;;;0.20;99.90;;;;;;4995013;28;36547;-76
2022/12/10 01:38:00;;;;;;;199.37;53.77;;;0.20;99.90;;;;;;4981971;28;39541;-76
2022/12/10 01:40:27;;;;;;;125.23;47.40;;;0.10;99.90;;;;;;4996150;28;37403;-76
2022/12/10 01:42:53;;;;;;;199.13;48.97;;;0.10;99.90;;;;;;4983672;28;37046;-76
2022/12/10 01:45:19;;;;;;;124.13;46.83;;;0.00;99.90;;;;;;5001193;28;36919;-76
2022/12/10 01:47:46;;;;;;;186.30;50.93;;;0.10;99.90;;;;;;4991526;28;37595;-76
2022/12/10 01:50:12;;;;;;;197.03;50.90;;;0.20;99.90;;;;;;4999381;28;37319;-76
2022/12/10 01:52:38;;;;;;;242.00;55.30;;;0.10;99.90;;;;;;5003443;28;37821;-76
2022/12/10 01:55:28;;;;;;;230.83;52.17;;;0.10;99.90;;;;;;4984559;28;37151;-76
2022/12/10 01:57:54;;;;;;;187.60;49.27;;;0.10;99.90;;;;;;4987450;28;38947;-76
2022/12/10 02:03:05;;;;;;;216.33;52.17;;;0.20;99.90;;;;;;5342132;22;20050;-72
2022/12/10 02:05:43;;;;;;;133.67;48.90;;;0.20;99.90;;;;;;5016726;28;47482;-72
2022/12/10 02:08:32;;;;;;;172.30;51.27;;;0.30;99.90;;;;;;5039806;28;37827;-73
2022/12/10 02:11:04;;;;;;;207.87;52.43;;;0.20;99.90;;;;;;5022945;28;38537;-74
2022/12/10 02:14:02;;;;;;;165.57;49.28;;;0.30;99.90;;;;;;5022544;28;46827;-74
2022/12/10 02:16:46;;;;;;;149.83;50.23;;;0.30;99.90;;;;;;5037226;28;47268;-73
2022/12/10 02:19:33;;;;;;;160.63;50.47;;;0.30;99.90;;;;;;5010914;28;36189;-74
2022/12/10 02:22:00;;;;;;;182.10;49.17;;;0.20;99.90;;;;;;5019499;28;37201;-74
2022/12/10 02:24:31;;;;;;;365.87;60.60;;;0.20;99.90;;;;;;5031094;28;37146;-73
2022/12/10 02:27:19;;;;;;;154.03;48.30;;;0.30;99.90;;;;;;5015778;28;37317;-74
2022/12/10 02:29:48;;;;;;;180.43;49.73;;;0.30;99.90;;;;;;5018415;28;47257;-74
2022/12/10 02:32:20;;;;;;;125.10;47.13;;;0.30;99.90;;;;;;5016807;28;38216;-75
2022/12/10 02:34:52;;;;;;;132.35;38.47;;;0.30;99.90;;;;;;5022645;28;37823;-75
2022/12/10 02:37:28;;;;;;;173.83;48.60;;;0.30;99.90;;;;;;5015626;28;37990;-74
2022/12/10 02:39:57;;;;;;;188.10;49.60;;;0.30;99.90;;;;;;5016231;28;38247;-73
2022/12/10 02:42:26;;;;;;;121.87;41.00;;;0.30;99.90;;;;;;5029097;28;37425;-73
2022/12/10 02:44:55;;;;;;;122.67;42.57;;;0.30;99.90;;;;;;5015029;28;37021;-73
2022/12/10 02:47:21;;;;;;;194.77;46.83;;;0.30;99.90;;;;;;5045283;28;35951;-74
2022/12/10 02:49:52;;;;;;;104.07;41.40;;;0.40;99.90;;;;;;5025763;28;38928;-74
2022/12/10 02:52:19;;;;;;;150.47;48.30;;;0.30;99.90;;;;;;5015605;28;38616;-73
2022/12/10 02:54:48;;;;;;;144.93;45.90;;;0.40;99.90;;;;;;5023597;28;38096;-74
2022/12/10 02:57:35;;;;;;;130.33;42.90;;;0.40;99.90;;;;;;5043470;28;36419;-74
2022/12/10 03:00:05;;;;;;;117.53;44.10;;;0.40;99.90;;;;;;5024039;28;38673;-73
2022/12/10 03:02:36;;;;;;;212.23;52.27;;;0.40;99.90;;;;;;5023050;28;38504;-74
2022/12/10 03:05:16;;;;;;;220.23;54.20;;;0.50;99.90;;;;;;5036995;28;37896;-73
2022/12/10 03:07:54;;;;;;;160.60;48.60;;;0.50;99.90;;;;;;5023053;28;47372;-75
2022/12/10 03:10:41;;;;;;;200.10;51.33;;;0.50;99.90;;;;;;5027352;28;39508;-74
2022/12/10 03:13:11;;;;;;;117.10;46.20;;;0.40;99.90;;;;;;5022020;28;38176;-74
2022/12/10 03:15:40;;;;;;;118.33;46.23;;;0.40;99.90;;;;;;5021233;28;36995;-74
2022/12/10 03:18:08;;;;;;;138.50;51.00;;;0.50;99.90;;;;;;5023500;28;37347;-73
2022/12/10 03:20:38;;;;;;;211.07;52.37;;;0.50;99.90;;;;;;5027618;28;37611;-73
2022/12/10 03:23:12;;;;;;;156.90;49.53;;;0.60;99.90;;;;;;5022958;28;36466;-73
2022/12/10 03:25:39;;;;;;;109.40;45.70;;;0.40;99.90;;;;;;5028655;28;37733;-74
2022/12/10 03:28:07;;;;;;;166.73;49.70;;;0.40;99.90;;;;;;5021666;28;37306;-73
2022/12/10 03:30:35;;;;;;;130.23;48.13;;;0.40;99.90;;;;;;5017990;28;38603;-74
2022/12/10 03:33:02;;;;;;;121.97;46.00;;;0.40;99.90;;;;;;5030429;28;37304;-74
2022/12/10 03:35:29;;;;;;;242.63;54.83;;;0.40;99.90;;;;;;5041890;28;47189;-74
2022/12/10 03:37:55;;;;;;;146.27;46.30;;;0.40;99.90;;;;;;5038703;28;37038;-73
2022/12/10 03:40:24;;;;;;;120.27;44.37;;;0.40;99.90;;;;;;5023590;28;38837;-73
2022/12/10 03:42:50;;;;;;;154.00;48.07;;;0.40;99.90;;;;;;5045699;28;37142;-73
2022/12/10 03:45:17;;;;;;;281.50;57.90;;;0.40;99.90;;;;;;5028544;28;38114;-74
2022/12/10 03:47:43;;;;;;;205.83;48.00;;;0.40;99.90;;;;;;5044864;28;37742;-73
2022/12/10 03:50:10;;;;;;;95.93;42.27;;;0.40;99.90;;;;;;5029060;28;38664;-73
2022/12/10 03:52:36;;;;;;;207.37;51.70;;;0.30;99.90;;;;;;5029702;28;38540;-73
2022/12/10 03:55:03;;;;;;;142.17;44.10;;;0.40;99.90;;;;;;5027623;28;37988;-74
2022/12/10 03:57:29;;;;;;;118.97;45.00;;;0.40;99.90;;;;;;5029906;28;37371;-73
2022/12/10 03:59:55;;;;;;;119.93;43.57;;;0.40;99.90;;;;;;5023246;28;38890;-73
2022/12/10 04:02:21;;;;;;;116.83;43.60;;;0.40;99.90;;;;;;5035154;28;39626;-73
2022/12/10 04:04:47;;;;;;;144.00;44.20;;;0.40;99.90;;;;;;5024146;28;38005;-73
2022/12/10 04:07:13;;;;;;;125.20;45.53;;;0.40;99.90;;;;;;5027875;28;37253;-74
2022/12/10 04:09:39;;;;;;;188.73;48.40;;;0.40;99.90;;;;;;5033124;28;39133;-73
2022/12/10 04:12:05;;;;;;;207.27;47.13;;;0.40;99.90;;;;;;5024559;28;37849;-74
2022/12/10 04:17:33;;;;;;;154.70;43.73;;;0.40;99.90;;;;;;5002737;28;49259;-74
2022/12/10 04:19:59;;;;;;;144.83;43.57;;;0.40;99.90;;;;;;5019482;28;38190;-73
2022/12/10 04:27:57;;;;;;;103.00;40.83;;;0.40;99.90;;;;;;5019860;28;38544;-74
2022/12/10 04:30:23;;;;;;;147.50;43.37;;;0.40;99.90;;;;;;5040060;28;38124;-74
2022/12/10 04:32:50;;;;;;;153.17;45.17;;;0.40;99.90;;;;;;5026809;28;37108;-73
2022/12/10 04:35:16;;;;;;;161.10;44.37;;;0.40;99.90;;;;;;5036535;28;37264;-74
2022/12/10 04:37:42;;;;;;;141.67;44.27;;;0.40;99.90;;;;;;5038085;28;36378;-73
2022/12/10 04:40:09;;;;;;;115.70;42.50;;;0.40;99.90;;;;;;5017736;28;38500;-73
2022/12/10 04:42:35;;;;;;;109.03;43.60;;;0.50;99.90;;;;;;5019844;28;39289;-73
2022/12/10 04:45:01;;;;;;;115.07;42.97;;;0.50;99.90;;;;;;5027215;28;35958;-73
2022/12/10 04:47:27;;;;;;;210.33;49.27;;;0.50;99.90;;;;;;5019022;28;37252;-73
2022/12/10 04:49:54;;;;;;;144.40;43.67;;;0.50;99.90;;;;;;5018479;28;38310;-73
2022/12/10 04:52:20;;;;;;;141.83;43.33;;;0.50;99.90;;;;;;5019983;28;39007;-72
2022/12/10 04:54:46;;;;;;;162.50;44.53;;;0.50;99.90;;;;;;5033806;28;37299;-73
2022/12/10 04:57:12;;;;;;;197.03;48.43;;;0.50;99.90;;;;;;5017377;28;37275;-74
2022/12/10 04:59:38;;;;;;;145.70;45.40;;;0.50;99.90;;;;;;5020613;28;38471;-74
2022/12/10 05:02:05;;;;;;;127.27;41.47;;;0.50;99.90;;;;;;5035973;28;37388;-73
2022/12/10 05:04:32;;;;;;;167.40;43.70;;;0.50;99.90;;;;;;5018672;28;37839;-73
2022/12/10 05:06:58;;;;;;;83.13;34.80;;;0.50;99.90;;;;;;5039333;28;35957;-73
2022/12/10 05:09:24;;;;;;;131.33;40.17;;;0.60;99.90;;;;;;5036776;28;37600;-74
2022/12/10 05:11:50;;;;;;;95.47;34.97;;;0.60;99.90;;;;;;5025588;28;37151;-74
2022/12/10 05:14:16;;;;;;;106.43;36.70;;;0.50;99.90;;;;;;5023240;28;37790;-74
2022/12/10 05:16:43;;;;;;;101.87;36.53;;;0.50;99.90;;;;;;5019279;28;36476;-74
2022/12/10 05:19:10;;;;;;;187.30;40.27;;;0.40;99.90;;;;;;5018776;28;38953;-73
2022/12/10 05:24:20;;;;;;;172.60;41.17;;;0.50;99.90;;;;;;5027752;28;39845;-73
2022/12/10 05:26:50;;;;;;;176.67;42.47;;;0.40;99.90;;;;;;5031035;28;37753;-73
2022/12/10 05:29:17;;;;;;;77.23;34.23;;;0.40;99.90;;;;;;5025874;28;38945;-74
2022/12/10 05:31:43;;;;;;;98.83;35.27;;;0.50;99.90;;;;;;5017533;28;38634;-75
2022/12/10 05:34:11;;;;;;;103.73;37.10;;;0.50;99.90;;;;;;5024470;28;36674;-73
2022/12/10 05:36:37;;;;;;;110.67;34.90;;;0.40;99.90;;;;;;5028767;28;37692;-73
2022/12/10 05:39:03;;;;;;;78.70;31.73;;;0.40;99.90;;;;;;5029554;28;39722;-73
2022/12/10 05:41:33;;;;;;;85.83;32.93;;;0.40;99.90;;;;;;5023965;28;37256;-74
2022/12/10 05:44:00;;;;;;;135.70;36.23;;;0.30;99.90;;;;;;5019789;28;37861;-74
2022/12/10 05:46:29;;;;;;;121.20;34.70;;;0.30;99.90;;;;;;5043458;28;36283;-72
2022/12/10 05:48:56;;;;;;;116.17;36.40;;;0.30;99.90;;;;;;5035816;28;38511;-73
2022/12/10 05:51:25;;;;;;;111.97;36.87;;;0.30;99.90;;;;;;5027462;28;37599;-74
2022/12/10 05:53:53;;;;;;;119.93;37.50;;;0.30;99.90;;;;;;5020844;28;37429;-73
2022/12/10 05:56:21;;;;;;;176.37;40.53;;;0.30;99.90;;;;;;5035480;28;38391;-73
2022/12/10 05:58:49;;;;;;;156.50;39.20;;;0.30;99.90;;;;;;5023328;28;38787;-72
2022/12/10 06:01:18;;;;;;;119.10;36.27;;;0.30;99.90;;;;;;5021947;28;37508;-74
2022/12/10 06:03:44;;;;;;;78.23;33.03;;;0.30;99.90;;;;;;5018833;28;38466;-73
2022/12/10 06:06:11;;;;;;;89.77;34.60;;;0.30;99.90;;;;;;5023950;28;35413;-74
2022/12/10 06:08:37;;;;;;;79.30;35.67;;;0.40;99.90;;;;;;5023503;28;38439;-71
2022/12/10 06:11:06;;;;;;;76.90;33.50;;;0.40;99.90;;;;;;5026343;28;38303;-73
2022/12/10 06:13:32;;;;;;;145.47;40.13;;;0.50;99.90;;;;;;5020470;28;49176;-72
2022/12/10 06:15:58;;;;;;;110.47;37.87;;;0.40;99.90;;;;;;5018933;28;38074;-72
2022/12/10 06:18:24;;;;;;;130.47;39.03;;;0.40;99.90;;;;;;5018113;28;37911;-73
2022/12/10 06:20:51;;;;;;;118.20;37.43;;;0.40;99.90;;;;;;5032235;28;37329;-73
2022/12/10 06:23:17;;;;;;;129.43;39.40;;;0.40;99.90;;;;;;5030403;28;38104;-73
2022/12/10 06:25:43;;;;;;;140.47;40.80;;;0.40;99.90;;;;;;5022391;28;39029;-73
2022/12/10 06:28:09;;;;;;;151.63;43.90;;;0.40;99.90;;;;;;5029561;28;39053;-72
2022/12/10 06:30:35;;;;;;;106.43;41.00;;;0.40;99.90;;;;;;5022118;28;36981;-72
2022/12/10 06:33:01;;;;;;;132.30;41.47;;;0.50;99.90;;;;;;5032678;28;36875;-74
2022/12/10 06:35:28;;;;;;;104.33;38.77;;;0.50;99.90;;;;;;5024110;28;36546;-73
2022/12/10 06:37:54;;;;;;;114.23;40.07;;;0.50;99.90;;;;;;5024073;28;38847;-73
2022/12/10 06:40:20;;;;;;;137.30;43.73;;;0.50;99.90;;;;;;5033170;28;38541;-73
2022/12/10 06:42:46;;;;;;;124.67;41.53;;;0.50;99.90;;;;;;5042573;28;37177;-73
2022/12/10 06:45:12;;;;;;;130.97;42.10;;;0.50;99.90;;;;;;5045409;28;37523;-75
2022/12/10 06:47:38;;;;;;;169.87;47.33;;;0.60;99.90;;;;;;5023670;28;38647;-73
2022/12/10 06:50:05;;;;;;;176.93;48.07;;;0.50;99.90;;;;;;5046085;28;37078;-74
2022/12/10 06:52:31;;;;;;;130.27;42.93;;;0.50;99.90;;;;;;5045101;28;37040;-73
2022/12/10 06:54:57;;;;;;;181.63;44.77;;;0.60;99.90;;;;;;5041717;28;36329;-72
2022/12/10 06:57:23;;;;;;;120.37;40.67;;;0.50;99.90;;;;;;5028755;28;38242;-73
2022/12/10 06:59:49;;;;;;;114.00;43.20;;;0.50;99.90;;;;;;5024191;28;39492;-73
2022/12/10 07:02:15;;;;;;;105.50;39.63;;;0.50;99.90;;;;;;5022728;28;37406;-73
2022/12/10 07:04:41;;;;;;;111.23;41.80;;;0.60;99.90;;;;;;5026223;28;37126;-74
2022/12/10 07:07:08;;;;;;;148.90;44.33;;;0.60;99.90;;;;;;5028092;28;39116;-74
2022/12/10 07:09:34;;;;;;;156.67;43.43;;;0.50;99.90;;;;;;5020048;28;37207;-73
2022/12/10 07:12:00;;;;;;;148.57;43.33;;;0.50;99.90;;;;;;5026664;28;38098;-73
2022/12/10 07:14:26;;;;;;;152.43;43.83;;;0.40;99.90;;;;;;5030236;28;36630;-72
2022/12/10 07:16:52;;;;;;;136.07;38.90;;;0.40;99.90;;;;;;5028975;28;38834;-72
2022/12/10 07:19:18;;;;;;;101.47;38.27;;;0.40;99.90;;;;;;5041175;28;38665;-73
2022/12/10 07:21:45;;;;;;;116.33;41.53;;;0.40;99.90;;;;;;5044038;28;37053;-74
2022/12/10 07:24:15;;;;;;;206.40;46.37;;;0.40;99.90;;;;;;5023920;28;37587;-73
2022/12/10 07:26:43;;;;;;;182.87;46.30;;;0.40;99.90;;;;;;5026179;28;37928;-75
2022/12/10 07:29:13;;;;;;;231.73;47.17;;;0.40;99.90;;;;;;5021208;28;37252;-74
2022/12/10 07:31:39;;;;;;;144.33;42.07;;;0.30;99.90;;;;;;5036274;28;37012;-73
2022/12/10 07:34:05;;;;;;;241.23;48.00;;;0.30;99.90;;;;;;5005236;28;35779;-73
2022/12/10 07:36:32;;;;;;;234.70;46.00;;;0.30;99.90;;;;;;5007896;28;37999;-71
2022/12/10 07:38:58;;;;;;;268.90;46.77;;;0.20;99.90;;;;;;5016063;28;38237;-72
2022/12/10 07:41:25;;;;;;;155.23;43.70;;;0.20;99.90;;;;;;5015225;28;39165;-72
2022/12/10 07:43:51;;;;;;;163.40;45.50;;;0.20;99.90;;;;;;5019498;28;35455;-72
2022/12/10 07:46:23;;;;;;;156.67;47.37;;;0.20;99.90;;;;;;5022758;28;38002;-72
2022/12/10 07:48:49;;;;;;;225.02;50.33;;;0.20;99.90;;;;;;5021555;28;39497;-73
2022/12/10 07:51:18;;;;;;;136.40;46.20;;;0.20;99.90;;;;;;5022557;28;38118;-73
2022/12/10 07:53:44;;;;;;;158.07;45.83;;;0.20;99.90;;;;;;5032205;28;36530;-74
2022/12/10 07:56:11;;;;;;;167.40;47.80;;;0.20;99.90;;;;;;5031778;28;37731;-73
2022/12/10 07:58:40;;;;;;;129.33;44.87;;;0.30;99.90;;;;;;5019718;28;37004;-73
2022/12/10 08:01:12;;;;;;;171.83;47.43;;;0.30;99.90;;;;;;5018613;28;36829;-73
2022/12/10 08:03:39;;;;;;;183.07;46.97;;;0.30;99.90;;;;;;5042643;28;36519;-72
2022/12/10 08:06:14;;;;;;;200.67;47.90;;;0.20;99.90;;;;;;5030612;28;42997;-72
2022/12/10 08:08:42;;;;;;;194.10;48.87;;;0.10;99.90;;;;;;5021645;28;38490;-72
2022/12/10 08:11:09;;;;;;;280.50;56.97;;;0.10;99.90;;;;;;5043172;28;38348;-73
2022/12/10 08:13:35;;;;;;;169.77;46.47;;;0.10;99.90;;;;;;5031162;28;38015;-72
2022/12/10 08:16:13;;;;;;;192.57;49.93;;;0.10;99.90;;;;;;5027309;28;37430;-73
2022/12/10 08:18:40;;;;;;;183.10;48.03;;;0.00;99.90;;;;;;5040731;28;47345;-73
2022/12/10 08:21:18;;;;;;;208.17;49.97;;;0.00;99.90;;;;;;5024099;28;39310;-72
2022/12/10 08:23:44;;;;;;;213.27;49.93;;;0.00;99.90;;;;;;5022485;28;37706;-72
2022/12/10 08:26:14;;;;;;;200.40;46.10;;;0.00;99.90;;;;;;5022159;28;38521;-73
2022/12/10 08:28:40;;;;;;;164.60;46.33;;;0.00;99.90;;;;;;5046153;28;37094;-73
2022/12/10 08:31:09;;;;;;;148.27;46.07;;;0.00;99.90;;;;;;5022752;28;36860;-73
2022/12/10 08:33:36;;;;;;;127.97;41.73;;;-0.10;99.90;;;;;;5025004;28;36333;-73
2022/12/10 08:36:06;;;;;;;122.33;40.97;;;0.00;99.90;;;;;;5024497;28;37526;-73
2022/12/10 08:38:33;;;;;;;151.73;46.10;;;0.00;99.90;;;;;;5020159;28;47282;-72
2022/12/10 08:41:06;;;;;;;148.50;46.53;;;0.00;99.90;;;;;;5026157;28;36006;-72
2022/12/10 08:43:32;;;;;;;178.05;48.13;;;0.00;99.90;;;;;;5024833;28;48650;-73
2022/12/10 08:45:58;;;;;;;155.10;44.40;;;0.00;99.90;;;;;;5017794;28;38709;-72
2022/12/10 08:48:24;;;;;;;127.23;42.50;;;0.00;99.90;;;;;;5019840;28;37949;-74
2022/12/10 08:50:50;;;;;;;130.00;43.13;;;0.00;99.90;;;;;;5028984;28;38398;-74
2022/12/10 08:53:17;;;;;;;203.93;52.37;;;0.10;99.90;;;;;;5022000;28;36623;-71
2022/12/10 08:55:43;;;;;;;149.87;45.57;;;0.10;99.90;;;;;;5024794;28;39799;-73
2022/12/10 08:58:09;;;;;;;262.43;51.33;;;0.10;99.90;;;;;;5030094;28;38231;-72
2022/12/10 09:00:36;;;;;;;220.77;49.20;;;0.10;99.90;;;;;;5021464;28;39109;-72
2022/12/10 09:03:03;;;;;;;165.23;44.07;;;0.00;99.90;;;;;;5012849;28;36224;-73
2022/12/10 09:05:30;;;;;;;202.93;47.17;;;0.00;99.90;;;;;;5014458;28;46880;-72
2022/12/10 09:07:56;;;;;;;184.03;47.90;;;-0.10;99.90;;;;;;5010517;28;37542;-72
2022/12/10 09:10:22;;;;;;;187.07;45.13;;;-0.10;99.90;;;;;;5015121;28;38799;-71
2022/12/10 09:12:48;;;;;;;184.80;44.33;;;-0.10;99.90;;;;;;5030661;28;36806;-71
2022/12/10 09:15:14;;;;;;;196.30;46.03;;;-0.20;99.90;;;;;;5015820;28;40431;-73
2022/12/10 09:17:41;;;;;;;185.23;46.40;;;-0.20;99.90;;;;;;5024605;28;39227;-72
2022/12/10 09:20:07;;;;;;;154.13;44.43;;;-0.10;99.90;;;;;;5016494;28;40064;-72
2022/12/10 09:22:36;;;;;;;142.90;44.50;;;-0.10;99.90;;;;;;5039738;28;36089;-74
2022/12/10 09:25:07;;;;;;;187.23;44.93;;;-0.10;99.90;;;;;;5039660;28;38103;-72
2022/12/10 09:27:33;;;;;;;203.63;45.13;;;0.00;99.90;;;;;;5037555;28;46922;-73
2022/12/10 09:29:59;;;;;;;153.03;41.87;;;-0.10;99.90;;;;;;5019678;28;38653;-72
2022/12/10 09:32:25;;;;;;;177.80;44.93;;;-0.20;99.90;;;;;;5025778;28;37380;-73
2022/12/10 09:34:52;;;;;;;156.70;46.93;;;-0.10;99.90;;;;;;5038918;28;37628;-73
2022/12/10 09:37:18;;;;;;;168.67;48.00;;;0.00;99.90;;;;;;5021921;28;39166;-73
2022/12/10 09:39:45;;;;;;;167.57;45.17;;;0.00;99.90;;;;;;5018413;28;37471;-74
2022/12/10 09:42:17;;;;;;;174.07;46.83;;;-0.10;99.90;;;;;;5028178;28;36870;-73
2022/12/10 09:45:17;;;;;;;200.32;48.50;;;-0.10;99.90;;;;;;5022485;28;38577;-74
2022/12/10 09:48:06;;;;;;;139.00;42.93;;;0.00;99.90;;;;;;5021481;28;48105;-73
2022/12/10 09:50:42;;;;;;;149.50;43.97;;;-0.10;99.90;;;;;;5027751;28;48237;-72
2022/12/10 09:53:15;;;;;;;107.90;40.03;;;-0.10;99.90;;;;;;5043843;28;37717;-73
2022/12/10 09:55:45;;;;;;;106.33;42.40;;;0.00;99.90;;;;;;5047128;28;39330;-73
2022/12/10 09:58:19;;;;;;;167.47;43.93;;;0.00;99.90;;;;;;5040626;28;37144;-72
2022/12/10 10:00:55;;;;;;;117.03;42.77;;;0.00;99.90;;;;;;5022307;28;37562;-72
2022/12/10 10:03:21;;;;;;;114.33;40.47;;;0.00;99.90;;;;;;5022108;28;37702;-72
2022/12/10 10:05:50;;;;;;;111.50;41.57;;;0.00;99.90;;;;;;5023727;28;39447;-73
2022/12/10 10:08:19;;;;;;;133.70;42.53;;;0.20;99.90;;;;;;5022147;28;38578;-73
2022/12/10 10:10:47;;;;;;;101.23;37.87;;;0.10;99.90;;;;;;5010935;28;37783;-71
2022/12/10 10:13:35;;;;;;;117.57;39.17;;;0.10;99.90;;;;;;5023491;28;37365;-73
2022/12/10 10:16:16;;;;;;;118.20;40.60;;;0.20;99.90;;;;;;5049724;28;37983;-73
2022/12/10 10:18:58;;;;;;;137.07;41.47;;;0.10;99.90;;;;;;5040553;28;47273;-74
2022/12/10 10:21:38;;;;;;;133.03;44.00;;;0.10;99.90;;;;;;5021485;28;37305;-72
2022/12/10 10:24:06;;;;;;;101.57;41.27;;;0.10;99.90;;;;;;5034561;28;38589;-73
2022/12/10 10:26:33;;;;;;;154.37;47.37;;;0.10;99.90;;;;;;5041844;28;37593;-71
2022/12/10 10:29:01;;;;;;;116.23;41.07;;;0.10;99.90;;;;;;5032223;28;38553;-73
2022/12/10 10:31:32;;;;;;;115.90;40.13;;;0.20;99.90;;;;;;5043207;28;37093;-73
2022/12/10 10:34:05;;;;;;;138.30;42.43;;;0.10;99.90;;;;;;5042752;28;37405;-73
2022/12/10 10:36:33;;;;;;;;;;;0.10;99.90;;;;;;5016982;28;47366;-72
2022/12/10 10:39:26;;;;;;;117.97;40.93;;;0.20;99.90;;;;;;5025579;28;39667;-72
2022/12/10 10:41:55;;;;;;;113.27;42.40;;;0.20;99.90;;;;;;5043187;28;47239;-72
2022/12/10 10:44:25;;;;;;;105.07;39.77;;;0.30;99.90;;;;;;5031498;28;36471;-72
2022/12/10 10:46:55;;;;;;;126.77;41.57;;;0.30;99.90;;;;;;5017665;28;38124;-73
2022/12/10 10:49:28;;;;;;;120.07;43.07;;;0.40;99.90;;;;;;5024036;28;38208;-73
2022/12/10 10:52:00;;;;;;;101.83;38.77;;;0.60;99.90;;;;;;5041271;28;38572;-73
2022/12/10 10:54:39;;;;;;;139.57;42.42;;;0.40;99.90;;;;;;5012742;28;36478;-72
2022/12/10 10:57:33;;;;;;;115.83;38.67;;;0.40;99.90;;;;;;5029933;28;39435;-72
2022/12/10 11:00:22;;;;;;;93.07;37.60;;;0.50;99.90;;;;;;5023758;28;37281;-73
2022/12/10 11:02:49;;;;;;;101.70;41.17;;;0.60;99.90;;;;;;5029290;28;47563;-73
2022/12/10 11:05:33;;;;;;;132.67;43.47;;;0.80;99.90;;;;;;5015134;28;36333;-74
2022/12/10 11:08:04;;;;;;;93.73;37.90;;;0.80;99.90;;;;;;5022850;28;37865;-74
2022/12/10 11:10:32;;;;;;;95.27;34.70;;;0.80;99.90;;;;;;5022270;28;48739;-73
2022/12/10 11:13:18;;;;;;;118.20;39.37;;;0.70;99.90;;;;;;5035433;28;37491;-74
2022/12/10 11:15:44;;;;;;;110.63;35.57;;;0.70;99.90;;;;;;5034337;28;47308;-74
2022/12/10 11:18:51;;;;;;;106.83;37.43;;;0.60;99.90;;;;;;5034167;28;38941;-73
2022/12/10 11:21:21;;;;;;;97.53;37.97;;;0.50;99.90;;;;;;4996931;28;38245;-74
2022/12/10 11:23:52;;;;;;;132.50;38.17;;;0.60;99.90;;;;;;5020951;28;38776;-71
2022/12/10 11:26:49;;;;;;;129.47;37.23;;;0.50;99.90;;;;;;5036838;28;37616;-72
2022/12/10 11:29:42;;;;;;;101.20;35.30;;;0.40;99.90;;;;;;5017378;28;38753;-72
2022/12/10 11:32:29;;;;;;;;;;;0.40;99.90;;;;;;5027590;28;38201;-71
2022/12/10 11:35:14;;;;;;;109.00;36.97;;;0.40;99.90;;;;;;5032699;28;37795;-72
2022/12/10 11:37:54;;;;;;;108.93;38.97;;;0.40;99.90;;;;;;5025546;28;48148;-73
2022/12/10 11:40:38;;;;;;;105.63;39.47;;;0.40;99.90;;;;;;5017673;28;42266;-71
2022/12/10 11:43:23;;;;;;;119.97;40.43;;;0.50;99.90;;;;;;5017544;28;39231;-71
2022/12/10 11:46:20;;;;;;;113.87;39.33;;;0.50;99.90;;;;;;5024684;28;39687;-72
2022/12/10 11:49:05;;;;;;;107.23;37.60;;;0.50;99.90;;;;;;5022537;28;47443;-73
2022/12/10 11:52:04;;;;;;;104.50;39.57;;;0.50;99.90;;;;;;5026788;28;46978;-73
2022/12/10 11:54:36;;;;;;;107.43;40.13;;;0.60;99.90;;;;;;5016345;28;49039;-73
2022/12/10 11:57:13;;;;;;;130.02;39.65;;;0.60;99.90;;;;;;5016974;28;40089;-71
2022/12/10 11:59:45;;;;;;;133.47;39.27;;;0.60;99.90;;;;;;5035939;28;47376;-71
2022/12/10 12:02:44;;;;;;;115.55;39.20;;;0.50;99.90;;;;;;5013957;28;38891;-72
2022/12/10 12:05:51;;;;;;;114.90;39.33;;;0.60;99.90;;;;;;4993419;28;38682;-72
2022/12/10 12:08:56;;;;;;;106.23;37.43;;;0.60;99.90;;;;;;5015014;28;20104;-72
2022/12/10 12:11:40;;;;;;;;;;;0.60;99.90;;;;;;5019816;28;36439;-72
2022/12/10 12:14:22;;;;;;;109.00;38.50;;;0.60;99.90;;;;;;5044310;28;39817;-72
2022/12/10 12:17:23;;;;;;;110.90;38.23;;;0.60;99.90;;;;;;5030442;28;37281;-71
2022/12/10 12:19:57;;;;;;;106.23;37.20;;;0.70;99.90;;;;;;4978697;28;48511;-70
2022/12/10 12:22:34;;;;;;;107.63;40.07;;;0.60;99.90;;;;;;5023593;28;38240;-74
2022/12/10 12:25:17;;;;;;;126.93;40.53;;;0.70;99.90;;;;;;5017322;28;39360;-70
2022/12/10 12:27:47;;;;;;;108.22;38.70;;;0.60;99.90;;;;;;5047486;28;47517;-71
2022/12/10 12:30:18;;;;;;;129.87;40.17;;;0.60;99.90;;;;;;5051385;28;37573;-71
2022/12/10 12:33:02;;;;;;;111.30;37.80;;;0.70;99.90;;;;;;5025780;28;36380;-70
2022/12/10 12:35:59;;;;;;;109.53;38.83;;;0.70;99.90;;;;;;5030602;28;47637;-70
2022/12/10 12:38:56;;;;;;;127.53;38.27;;;0.70;99.90;;;;;;5040155;28;38265;-71
2022/12/10 12:41:45;;;;;;;106.03;38.03;;;0.70;99.90;;;;;;5000464;28;38266;-72
2022/12/10 12:44:40;;;;;;;129.63;40.90;;;0.80;99.90;;;;;;5040739;28;37610;-71
2022/12/10 12:47:30;;;;;;;134.90;41.57;;;0.80;99.90;;;;;;5033930;28;39219;-71
2022/12/10 12:49:58;;;;;;;101.93;37.83;;;0.80;99.90;;;;;;5029264;28;37374;-72
2022/12/10 12:52:46;;;;;;;123.87;39.57;;;0.90;99.90;;;;;;5024722;28;37031;-71
2022/12/10 12:55:53;;;;;;;113.03;38.97;;;0.90;99.90;;;;;;5026339;28;37215;-72
2022/12/10 12:58:40;;;;;;;100.27;36.40;;;0.90;99.90;;;;;;5032008;28;37774;-72
2022/12/10 13:01:24;;;;;;;88.73;35.13;;;1.00;99.90;;;;;;5019135;28;38614;-72
2022/12/10 13:03:51;;;;;;;88.07;36.57;;;1.10;99.90;;;;;;5027348;28;38104;-73